Time;durP1;ratioP1;P1;durP2;ratioP2;P2;SDS_P1;SDS_P2;PMS_P1;PMS_P2;Temp;Humidity;BMP_temperature;BMP_pressure;BME280_temperature;BME280_humidity;BME280_pressure;Samples;Min_cycle;Max_cycle;Signal;HPM_P1;HPM_P2
2022/04/16 00:00:52;;;;;;;0.60;0.60;;;;;;;14.08;54.91;103196.50;5048549;28;20040;-77
2022/04/16 00:03:21;;;;;;;0.00;0.00;;;;;;;14.12;54.71;103195.63;5048582;28;20502;-77
2022/04/16 00:05:49;;;;;;;0.10;0.10;;;;;;;14.13;54.88;103193.84;5050094;28;20032;-77
2022/04/16 00:08:15;;;;;;;0.00;0.00;;;;;;;14.12;54.91;103195.63;5050560;28;20029;-77
2022/04/16 00:10:41;;;;;;;0.10;0.10;;;;;;;14.12;55.34;103197.38;5049937;28;20115;-75
2022/04/16 00:13:07;;;;;;;0.52;0.52;;;;;;;14.11;54.93;103196.50;5048680;28;20406;-77
2022/04/16 00:15:34;;;;;;;0.00;0.00;;;;;;;14.12;55.00;103203.63;5053922;28;20025;-76
2022/04/16 00:18:00;;;;;;;0.57;0.35;;;;;;;14.07;55.06;103203.59;5058766;28;20048;-77
2022/04/16 00:20:27;;;;;;;0.25;0.25;;;;;;;14.08;55.04;103201.81;5063623;28;20029;-77
2022/04/16 00:22:54;;;;;;;0.00;0.00;;;;;;;14.08;55.07;103201.81;5067924;28;20088;-76
2022/04/16 00:25:20;;;;;;;0.63;0.63;;;;;;;14.10;55.14;103207.19;5059673;28;20032;-77
2022/04/16 00:27:47;;;;;;;0.08;0.08;;;;;;;14.10;54.77;103205.38;5052067;28;20086;-76
2022/04/16 00:30:13;;;;;;;0.20;0.20;;;;;;;14.09;55.08;103208.94;5058343;28;20048;-77
2022/04/16 00:32:41;;;;;;;0.10;0.10;;;;;;;14.03;54.29;103209.81;5048647;28;20036;-77
2022/04/16 00:35:07;;;;;;;1.85;1.45;;;;;;;14.01;53.66;103216.03;5050347;28;20025;-76
2022/04/16 00:37:34;;;;;;;0.20;0.20;;;;;;;13.91;54.08;103205.31;5049879;28;20403;-76
2022/04/16 00:40:00;;;;;;;0.10;0.10;;;;;;;13.94;53.14;103208.91;5051074;28;20036;-77
2022/04/16 00:42:32;;;;;;;0.05;0.05;;;;;;;13.94;53.57;103209.78;5050602;28;20069;-76
2022/04/16 00:45:01;;;;;;;0.20;0.20;;;;;;;13.86;53.17;103220.41;5046029;28;20037;-77
2022/04/16 00:47:28;;;;;;;0.43;0.28;;;;;;;13.85;53.77;103215.97;5048667;28;20033;-77
2022/04/16 00:49:55;;;;;;;0.10;0.10;;;;;;;13.85;53.98;103220.41;5051897;28;20044;-77
2022/04/16 00:52:21;;;;;;;0.10;0.10;;;;;;;13.84;54.35;103230.16;5049322;28;20529;-77
2022/04/16 00:54:50;;;;;;;0.08;0.08;;;;;;;13.88;54.05;103225.75;5045675;28;20075;-76
2022/04/16 00:57:19;;;;;;;0.10;0.10;;;;;;;13.88;54.00;103221.31;5045799;28;20060;-77
2022/04/16 00:59:46;;;;;;;0.10;0.10;;;;;;;13.86;53.96;103217.75;5049493;28;20086;-76
2022/04/16 01:02:12;;;;;;;0.10;0.10;;;;;;;13.87;54.20;103229.31;5048582;28;20025;-77
2022/04/16 01:04:38;;;;;;;0.20;0.20;;;;;;;13.85;54.42;103223.06;5046560;28;20037;-77
2022/04/16 01:07:06;;;;;;;0.00;0.00;;;;;;;13.84;54.02;103222.16;5047341;28;20495;-77
2022/04/16 01:09:33;;;;;;;0.20;0.20;;;;;;;13.75;54.28;103220.34;5050944;28;20112;-77
2022/04/16 01:12:00;;;;;;;0.50;0.50;;;;;;;13.80;53.77;103228.38;5050599;28;20071;-76
2022/04/16 01:14:26;;;;;;;0.10;0.10;;;;;;;13.78;54.34;103227.47;5051578;28;20036;-76
2022/04/16 01:16:53;;;;;;;0.00;0.00;;;;;;;13.77;54.38;103228.38;5048441;28;20509;-77
2022/04/16 01:19:21;;;;;;;0.15;0.15;;;;;;;13.74;54.44;103233.66;5047675;28;20071;-76
2022/04/16 01:21:48;;;;;;;0.10;0.10;;;;;;;13.65;54.95;103222.97;5047130;28;20108;-77
2022/04/16 01:24:14;;;;;;;6.85;2.75;;;;;;;13.59;54.86;103230.06;5049398;28;20579;-76
2022/04/16 01:26:41;;;;;;;0.00;0.00;;;;;;;13.51;54.83;103226.44;5049365;28;20367;-77
2022/04/16 01:29:09;;;;;;;0.28;0.28;;;;;;;13.40;55.24;103228.16;5049235;28;20039;-77
2022/04/16 01:31:35;;;;;;;0.10;0.10;;;;;;;13.31;54.94;103228.97;5048057;28;20387;-76
2022/04/16 01:34:03;;;;;;;0.00;0.00;;;;;;;13.20;55.42;103231.53;5054250;28;20083;-75
2022/04/16 01:36:31;;;;;;;0.63;0.63;;;;;;;13.11;56.03;103228.81;5048663;28;20133;-76
2022/04/16 01:38:58;;;;;;;0.47;0.47;;;;;;;13.03;55.78;103227.84;5049168;28;20463;-75
2022/04/16 01:41:25;;;;;;;0.10;0.10;;;;;;;12.87;55.95;103225.09;5048003;28;20028;-75
2022/04/16 01:43:53;;;;;;;0.22;0.22;;;;;;;12.73;56.35;103229.38;5048580;28;20033;-75
2022/04/16 01:46:20;;;;;;;0.10;0.10;;;;;;;12.61;56.31;103228.38;5049927;28;20108;-75
2022/04/16 01:48:47;;;;;;;0.10;0.10;;;;;;;12.47;56.75;103222.03;5052039;28;20029;-75
2022/04/16 01:51:17;;;;;;;0.47;0.47;;;;;;;12.36;57.32;103229.91;5051844;28;20112;-75
2022/04/16 01:53:44;;;;;;;4.10;1.58;;;;;;;12.24;57.70;103230.66;5052563;28;20075;-75
2022/04/16 01:56:11;;;;;;;0.00;0.00;;;;;;;12.15;57.79;103225.25;5053373;28;20056;-75
2022/04/16 01:58:38;;;;;;;0.00;0.00;;;;;;;12.07;57.20;103221.59;5052648;28;20078;-75
2022/04/16 02:01:05;;;;;;;0.00;0.00;;;;;;;11.95;58.00;103230.25;5053340;28;20078;-77
2022/04/16 02:03:33;;;;;;;0.00;0.00;;;;;;;11.89;58.45;103236.41;5052514;28;20036;-75
2022/04/16 02:05:59;;;;;;;0.40;0.40;;;;;;;11.81;58.09;103236.31;5052134;28;20397;-75
2022/04/16 02:08:26;;;;;;;0.03;0.03;;;;;;;11.75;58.32;103235.31;5052337;28;20064;-75
2022/04/16 02:10:52;;;;;;;0.40;0.40;;;;;;;11.69;58.42;103235.22;5051615;28;20029;-76
2022/04/16 02:13:18;;;;;;;0.10;0.10;;;;;;;11.61;58.41;103229.81;5049143;28;20075;-75
2022/04/16 02:15:44;;;;;;;1.55;1.45;;;;;;;11.56;58.74;103232.41;5055827;28;20459;-77
2022/04/16 02:18:10;;;;;;;0.00;0.00;;;;;;;11.50;58.83;103240.28;5053198;28;20025;-75
2022/04/16 02:20:36;;;;;;;0.60;0.57;;;;;;;11.45;58.70;103239.31;5051878;28;20445;-75
2022/04/16 02:23:04;;;;;;;0.10;0.10;;;;;;;11.38;58.54;103232.16;5050902;28;20558;-75
2022/04/16 02:25:31;;;;;;;0.30;0.30;;;;;;;11.32;58.74;103241.78;5051786;28;20029;-75
2022/04/16 02:27:57;;;;;;;0.10;0.10;;;;;;;11.26;58.88;103233.72;5047583;28;20032;-77
2022/04/16 02:30:23;;;;;;;0.08;0.08;;;;;;;11.21;58.85;103235.41;5051405;28;20041;-77
2022/04/16 02:32:52;;;;;;;0.10;0.10;;;;;;;11.15;59.41;103235.31;5051789;28;20068;-75
2022/04/16 02:35:19;;;;;;;0.10;0.10;;;;;;;11.13;59.06;103234.44;5052402;28;20027;-75
2022/04/16 02:37:46;;;;;;;0.55;0.55;;;;;;;11.11;59.39;103238.81;5055609;28;20029;-75
2022/04/16 02:40:13;;;;;;;0.00;0.00;;;;;;;11.08;59.48;103233.44;5051677;28;20078;-75
2022/04/16 02:42:41;;;;;;;0.10;0.10;;;;;;;11.04;59.40;103239.56;5049889;28;20055;-75
2022/04/16 02:47:57;;;;;;;0.10;0.10;;;;;;;11.02;59.51;103231.59;5048616;28;20513;-76
2022/04/16 02:50:25;;;;;;;0.00;0.00;;;;;;;10.99;59.70;103237.75;5051486;28;20036;-75
2022/04/16 02:52:51;;;;;;;0.10;0.10;;;;;;;10.99;59.75;103235.09;5050480;28;20029;-75
2022/04/16 02:55:18;;;;;;;0.00;0.00;;;;;;;10.97;59.64;103239.47;5050893;28;20041;-74
2022/04/16 02:57:45;;;;;;;0.00;0.00;;;;;;;10.96;59.43;103237.66;5049353;28;20040;-75
2022/04/16 03:00:13;;;;;;;0.10;0.10;;;;;;;10.95;59.51;103235.91;5051521;28;20025;-75
2022/04/16 03:02:39;;;;;;;0.30;0.30;;;;;;;10.92;59.66;103235.84;5050890;28;20059;-77
2022/04/16 03:05:07;;;;;;;0.10;0.10;;;;;;;10.92;60.04;103240.28;5051574;28;20044;-75
2022/04/16 03:07:34;;;;;;;0.20;0.20;;;;;;;10.90;59.88;103242.00;5052431;28;20505;-75
2022/04/16 03:10:02;;;;;;;0.03;0.03;;;;;;;10.88;60.13;103243.72;5052722;28;20032;-75
2022/04/16 03:12:39;;;;;;;0.10;0.10;;;;;;;10.86;60.05;103245.47;5049788;28;20025;-76
2022/04/16 03:17:52;;;;;;;0.10;0.10;;;;;;;10.76;60.12;103242.63;5053569;28;20124;-76
2022/04/16 03:20:20;;;;;;;0.10;0.10;;;;;;;10.73;59.94;103245.25;5056892;28;20024;-75
2022/04/16 03:22:46;;;;;;;0.10;0.10;;;;;;;10.70;59.93;103244.28;5053251;28;20037;-76
2022/04/16 03:25:12;;;;;;;0.05;0.05;;;;;;;10.67;60.02;103253.09;5050648;28;20453;-76
2022/04/16 03:27:39;;;;;;;0.10;0.10;;;;;;;10.63;60.27;103246.84;5047469;28;20557;-76
2022/04/16 03:30:06;;;;;;;0.10;0.10;;;;;;;10.62;60.85;103250.34;5050341;28;20478;-76
2022/04/16 03:32:37;;;;;;;0.10;0.10;;;;;;;10.63;60.89;103252.13;5049332;28;20029;-76
2022/04/16 03:35:05;;;;;;;0.10;0.10;;;;;;;10.64;61.04;103250.38;5050836;28;20025;-75
2022/04/16 03:37:34;;;;;;;0.10;0.10;;;;;;;10.62;60.99;103245.03;5064576;22;20560;-78
2022/04/16 03:40:01;;;;;;;0.63;0.63;;;;;;;10.60;61.02;103248.53;5011639;28;20038;-79
2022/04/16 03:42:27;;;;;;;0.20;0.20;;;;;;;10.59;60.97;103247.66;5007155;28;20068;-78
2022/04/16 03:44:53;;;;;;;0.10;0.10;;;;;;;10.58;60.98;103251.16;5006399;28;20034;-79
2022/04/16 03:47:19;;;;;;;0.00;0.00;;;;;;;10.59;60.38;103257.34;5007637;28;20097;-79
2022/04/16 03:49:45;;;;;;;0.10;0.10;;;;;;;10.54;61.03;103254.59;5003130;28;20025;-80
2022/04/16 03:52:11;;;;;;;0.10;0.10;;;;;;;10.52;60.92;103253.69;5011828;28;20081;-80
2022/04/16 04:00:11;;;;;;;0.30;0.30;;;;;;;10.43;61.04;103264.09;4998177;28;20046;-79
2022/04/16 04:02:38;;;;;;;1.65;0.85;;;;;;;10.41;61.13;103263.22;5004749;28;20042;-80
2022/04/16 04:05:06;;;;;;;0.00;0.00;;;;;;;10.35;61.02;103264.84;5004448;28;20034;-80
2022/04/16 04:07:32;;;;;;;0.45;0.45;;;;;;;10.29;60.83;103283.25;5000599;28;20405;-80
2022/04/16 04:09:59;;;;;;;0.10;0.10;;;;;;;10.26;60.74;103280.53;5006260;28;20021;-80
2022/04/16 04:12:25;;;;;;;0.10;0.10;;;;;;;10.19;60.80;103279.53;5006916;28;20061;-80
2022/04/16 04:14:52;;;;;;;0.57;0.57;;;;;;;10.15;60.60;103288.25;5011124;28;20030;-79
2022/04/16 04:17:18;;;;;;;0.10;0.10;;;;;;;10.10;60.77;103281.97;5003710;28;20105;-78
2022/04/16 04:19:47;;;;;;;0.10;0.10;;;;;;;10.09;60.98;103284.59;5007954;28;20041;-78
2022/04/16 04:22:16;;;;;;;0.10;0.10;;;;;;;10.04;61.17;103279.19;5007878;28;20064;-78
2022/04/16 04:24:43;;;;;;;0.22;0.22;;;;;;;10.02;61.22;103279.16;5004339;28;20564;-78
2022/04/16 04:27:09;;;;;;;0.88;0.88;;;;;;;10.00;61.19;103278.22;5002390;28;20029;-79
2022/04/16 04:29:36;;;;;;;0.15;0.15;;;;;;;9.99;60.94;103279.13;5013918;28;20152;-80
2022/04/16 04:32:04;;;;;;;0.08;0.08;;;;;;;9.95;60.96;103295.78;5008778;28;20057;-80
2022/04/16 04:34:30;;;;;;;3.30;1.15;;;;;;;9.92;61.20;103285.13;5004003;28;20037;-80
2022/04/16 04:36:56;;;;;;;0.38;0.38;;;;;;;9.91;61.79;103299.22;4997099;28;20033;-79
2022/04/16 04:39:22;;;;;;;0.10;0.10;;;;;;;9.88;61.54;103296.50;5007333;28;20052;-80
2022/04/16 04:41:48;;;;;;;0.30;0.30;;;;;;;9.87;61.89;103297.38;4998456;28;20033;-78
2022/04/16 04:44:15;;;;;;;0.00;0.00;;;;;;;9.85;61.92;103299.97;5006787;28;20058;-78
2022/04/16 04:46:42;;;;;;;0.08;0.08;;;;;;;9.84;61.88;103300.84;5011541;28;20022;-79
2022/04/16 04:49:09;;;;;;;0.20;0.20;;;;;;;9.83;61.91;103306.09;5003245;28;20034;-80
2022/04/16 04:51:36;;;;;;;0.88;0.88;;;;;;;9.84;61.75;103307.88;5003477;28;20073;-80
2022/04/16 04:54:03;;;;;;;0.15;0.15;;;;;;;9.83;62.07;103307.00;5004729;28;20409;-80
2022/04/16 04:56:30;;;;;;;0.10;0.10;;;;;;;9.84;61.98;103311.44;5005760;28;20049;-80
2022/04/16 04:58:57;;;;;;;0.40;0.40;;;;;;;9.86;61.81;103311.47;5007809;28;20404;-78
2022/04/16 05:01:23;;;;;;;0.45;0.45;;;;;;;9.88;61.26;103310.66;4999452;28;20295;-80
2022/04/16 05:03:50;;;;;;;0.10;0.10;;;;;;;9.90;61.60;103313.31;5004310;28;20027;-81
2022/04/16 05:06:16;;;;;;;0.20;0.20;;;;;;;9.92;61.56;103310.69;4998178;28;20030;-81
2022/04/16 05:08:43;;;;;;;0.08;0.08;;;;;;;9.92;61.32;103311.59;5009023;28;20038;-78
2022/04/16 05:11:10;;;;;;;0.10;0.10;;;;;;;9.93;61.65;103318.69;5005566;28;20030;-78
2022/04/16 05:13:36;;;;;;;0.10;0.10;;;;;;;9.94;61.62;103315.16;5003193;28;20050;-80
2022/04/16 05:16:02;;;;;;;0.03;0.03;;;;;;;9.96;61.56;103312.56;5006186;28;20046;-78
2022/04/16 05:18:28;;;;;;;0.22;0.22;;;;;;;9.94;61.99;103312.53;5004991;28;20030;-78
2022/04/16 05:20:54;;;;;;;0.00;0.00;;;;;;;9.97;61.71;103317.91;5010836;28;20056;-78
2022/04/16 05:23:20;;;;;;;0.17;0.17;;;;;;;9.96;62.42;103318.75;5007534;28;20038;-78
2022/04/16 05:25:46;;;;;;;0.20;0.20;;;;;;;9.99;61.48;103324.13;5009008;28;20029;-78
2022/04/16 05:28:12;;;;;;;0.63;0.63;;;;;;;10.02;61.43;103329.47;5011474;28;20116;-80
2022/04/16 05:30:44;;;;;;;0.17;0.17;;;;;;;10.04;60.99;103333.06;5011998;28;20029;-81
2022/04/16 05:34:18;;;;;;;0.10;0.10;;;;;;;10.04;61.74;103342.75;5009873;28;20108;-80
2022/04/16 05:35:57;;;;;;;0.90;0.52;;;;;;;10.06;62.34;103341.03;5007982;28;20049;-80
2022/04/16 05:38:23;;;;;;;0.52;0.52;;;;;;;10.07;62.28;103347.22;5011023;28;20046;-79
2022/04/16 05:40:49;;;;;;;0.10;0.10;;;;;;;10.11;62.41;103351.75;5000735;28;20030;-80
2022/04/16 05:43:15;;;;;;;0.10;0.10;;;;;;;10.18;62.15;103346.63;5005284;28;20038;-80
2022/04/16 05:45:41;;;;;;;0.10;0.10;;;;;;;10.23;62.24;103353.75;5010160;28;20069;-80
2022/04/16 05:48:07;;;;;;;0.20;0.20;;;;;;;10.24;62.68;103358.22;5007427;28;20034;-80
2022/04/16 05:50:35;;;;;;;0.10;0.10;;;;;;;10.28;62.30;103365.34;5004948;28;20035;-80
2022/04/16 05:53:01;;;;;;;0.25;0.25;;;;;;;10.29;62.80;103353.91;4998868;28;20034;-78
2022/04/16 05:55:27;;;;;;;0.40;0.40;;;;;;;10.30;62.38;103355.69;5009110;28;20432;-80
2022/04/16 05:57:53;;;;;;;0.10;0.10;;;;;;;10.32;62.84;103360.16;5012876;28;20022;-80
2022/04/16 06:00:19;;;;;;;0.13;0.13;;;;;;;10.36;62.11;103354.09;5007308;28;20558;-80
2022/04/16 06:02:46;;;;;;;0.30;0.30;;;;;;;10.35;62.80;103356.69;5009027;28;20034;-80
2022/04/16 06:05:13;;;;;;;0.10;0.10;;;;;;;10.38;62.60;103355.88;5012715;28;20032;-79
2022/04/16 06:07:39;;;;;;;2.83;0.73;;;;;;;10.41;63.10;103363.91;5011173;28;20037;-80
2022/04/16 06:10:06;;;;;;;0.20;0.20;;;;;;;10.46;63.57;103368.44;5007965;28;20049;-80
2022/04/16 06:12:32;;;;;;;0.10;0.10;;;;;;;10.50;63.87;103375.59;5006756;28;20046;-80
2022/04/16 06:14:59;;;;;;;0.17;0.17;;;;;;;10.51;63.81;103372.06;5008148;28;20030;-80
2022/04/16 06:17:25;;;;;;;0.10;0.10;;;;;;;10.58;63.85;103378.41;5010254;28;20034;-80
2022/04/16 06:19:51;;;;;;;0.60;0.32;;;;;;;10.62;63.95;103374.94;5008470;28;20110;-80
2022/04/16 06:22:18;;;;;;;0.00;0.00;;;;;;;10.70;63.57;103374.22;4999079;28;20041;-80
2022/04/16 06:24:44;;;;;;;0.10;0.10;;;;;;;10.76;63.41;103377.00;5005099;28;20064;-80
2022/04/16 06:27:10;;;;;;;0.10;0.10;;;;;;;10.82;63.70;103382.41;5009104;28;20116;-80
2022/04/16 06:29:36;;;;;;;0.88;0.63;;;;;;;10.88;63.43;103382.53;5006400;28;20037;-80
2022/04/16 06:32:02;;;;;;;0.22;0.22;;;;;;;10.93;63.17;103375.56;5007474;28;20045;-80
2022/04/16 06:34:28;;;;;;;0.32;0.32;;;;;;;10.99;63.30;103381.00;5009162;28;20041;-80
2022/04/16 06:36:54;;;;;;;0.20;0.20;;;;;;;11.08;63.34;103382.00;5010384;28;20030;-79
2022/04/16 06:39:20;;;;;;;0.15;0.15;;;;;;;11.15;63.32;103381.25;5012474;28;20460;-81
2022/04/16 06:41:46;;;;;;;0.20;0.20;;;;;;;11.24;62.75;103385.84;5010324;28;20084;-80
2022/04/16 06:44:13;;;;;;;1.00;0.57;;;;;;;11.32;63.28;103390.41;5015278;28;20523;-81
2022/04/16 06:46:39;;;;;;;0.10;0.10;;;;;;;11.39;62.90;103395.84;5009435;28;20040;-81
2022/04/16 06:49:05;;;;;;;0.32;0.32;;;;;;;11.45;63.54;103393.28;5007621;28;20073;-80
2022/04/16 06:51:31;;;;;;;0.25;0.25;;;;;;;11.53;63.03;103396.97;5007515;28;20033;-79
2022/04/16 06:53:57;;;;;;;1.17;0.77;;;;;;;11.61;63.19;103394.44;5008019;28;20045;-79
2022/04/16 06:56:23;;;;;;;0.10;0.10;;;;;;;11.67;62.39;103391.03;5009538;28;20387;-80
2022/04/16 06:58:50;;;;;;;0.10;0.10;;;;;;;11.77;62.15;103398.25;5009046;28;20339;-80
2022/04/16 07:01:16;;;;;;;0.13;0.13;;;;;;;11.82;62.78;103397.47;5009270;28;20038;-80
2022/04/16 07:03:42;;;;;;;0.20;0.20;;;;;;;11.90;63.41;103397.59;5009857;28;20050;-81
2022/04/16 07:06:08;;;;;;;0.00;0.00;;;;;;;11.91;63.91;103403.78;5017984;28;20041;-80
2022/04/16 07:08:34;;;;;;;2.42;0.75;;;;;;;12.03;63.42;103403.13;5000711;28;20085;-80
2022/04/16 07:11:01;;;;;;;0.17;0.17;;;;;;;12.13;63.31;103403.25;5011487;28;20762;-77
2022/04/16 07:13:27;;;;;;;0.73;0.73;;;;;;;12.23;63.05;103396.31;5003455;28;20029;-77
2022/04/16 07:15:53;;;;;;;0.10;0.10;;;;;;;12.31;63.02;103399.06;5009867;28;20042;-80
2022/04/16 07:18:20;;;;;;;0.00;0.00;;;;;;;12.35;62.75;103400.00;4998251;28;20034;-80
2022/04/16 07:20:47;;;;;;;0.10;0.10;;;;;;;12.44;62.24;103402.81;5013845;28;20038;-79
2022/04/16 07:23:13;;;;;;;0.30;0.30;;;;;;;12.51;62.34;103393.13;5004739;28;20021;-80
2022/04/16 07:25:39;;;;;;;0.10;0.10;;;;;;;12.59;61.73;103403.00;5006539;28;20034;-80
2022/04/16 07:28:05;;;;;;;0.00;0.00;;;;;;;12.65;63.02;103401.28;5007675;28;20087;-80
2022/04/16 07:30:31;;;;;;;0.15;0.15;;;;;;;12.71;62.62;103401.34;5014432;28;20037;-80
2022/04/16 07:32:57;;;;;;;0.35;0.35;;;;;;;12.81;61.57;103403.28;5010460;28;20026;-81
2022/04/16 07:35:26;;;;;;;0.03;0.03;;;;;;;12.90;62.68;103402.50;5006470;28;20088;-81
2022/04/16 07:37:56;;;;;;;0.40;0.40;;;;;;;12.95;61.32;103396.31;5008500;28;20026;-81
2022/04/16 07:40:24;;;;;;;0.43;0.43;;;;;;;13.05;62.41;103396.44;5000633;28;20383;-80
2022/04/16 07:42:51;;;;;;;0.35;0.35;;;;;;;13.14;61.37;103395.66;4999612;28;20022;-81
2022/04/16 07:45:17;;;;;;;0.10;0.10;;;;;;;13.22;60.81;103389.53;5006587;28;20033;-80
2022/04/16 07:47:43;;;;;;;0.10;0.10;;;;;;;13.29;61.09;103392.25;5015069;28;20038;-84
2022/04/16 07:50:09;;;;;;;0.60;0.60;;;;;;;13.36;60.75;103396.75;5011587;28;20022;-80
2022/04/16 07:52:35;;;;;;;0.10;0.10;;;;;;;13.42;60.97;103394.16;5012988;28;20104;-77
2022/04/16 07:55:01;;;;;;;0.57;0.57;;;;;;;13.46;61.34;103403.06;5001097;28;20057;-77
2022/04/16 07:57:27;;;;;;;0.77;0.77;;;;;;;13.60;60.40;103401.41;4995849;28;20038;-78
2022/04/16 07:59:54;;;;;;;0.30;0.30;;;;;;;13.68;60.82;103406.81;5012197;28;20056;-77
2022/04/16 08:02:20;;;;;;;0.17;0.17;;;;;;;13.75;60.74;103398.00;5002116;28;20031;-77
2022/04/16 08:04:47;;;;;;;0.60;0.60;;;;;;;13.91;60.62;103407.00;4997263;28;20034;-78
2022/04/16 08:07:13;;;;;;;0.20;0.20;;;;;;;13.98;60.47;103407.91;5002381;28;20034;-78
2022/04/16 08:09:39;;;;;;;0.00;0.00;;;;;;;14.05;60.20;103405.28;5013964;28;20113;-79
2022/04/16 08:12:06;;;;;;;0.43;0.38;;;;;;;14.08;59.63;103402.66;5017110;28;20029;-80
2022/04/16 08:14:32;;;;;;;0.20;0.20;;;;;;;14.18;59.38;103416.94;5004029;28;20038;-80
2022/04/16 08:16:58;;;;;;;0.88;0.88;;;;;;;14.30;59.63;103401.91;4996508;28;20026;-79
2022/04/16 08:19:24;;;;;;;0.32;0.32;;;;;;;14.34;59.63;103406.34;4995305;28;20034;-78
2022/04/16 08:21:50;;;;;;;0.22;0.22;;;;;;;14.46;59.28;103410.88;5006362;28;20049;-80
2022/04/16 08:27:08;;;;;;;9.00;1.95;;;;;;;14.54;58.63;103394.03;5070953;28;20406;-79
2022/04/16 08:29:35;;;;;;;0.20;0.20;;;;;;;14.65;58.66;103401.19;5052012;28;20021;-79
2022/04/16 08:32:01;;;;;;;0.05;0.05;;;;;;;14.71;58.92;103399.44;5051196;28;20063;-79
2022/04/16 08:34:27;;;;;;;0.77;0.60;;;;;;;14.77;58.95;103406.59;5051815;28;20029;-78
2022/04/16 08:36:53;;;;;;;6.95;1.75;;;;;;;14.93;58.61;103399.53;5051279;28;20018;-79
2022/04/16 08:39:19;;;;;;;0.10;0.10;;;;;;;15.07;58.65;103404.00;5038210;28;20029;-80
2022/04/16 08:41:45;;;;;;;0.38;0.38;;;;;;;15.23;58.25;103399.56;5046794;28;20025;-80
2022/04/16 08:44:14;;;;;;;0.15;0.15;;;;;;;15.35;58.15;103396.91;5065692;28;20052;-80
2022/04/16 08:46:40;;;;;;;0.30;0.30;;;;;;;15.45;57.85;103404.06;5045388;28;20026;-81
2022/04/16 08:49:08;;;;;;;2.92;2.58;;;;;;;15.51;57.41;103396.03;5048488;28;20408;-80
2022/04/16 08:51:34;;;;;;;1.98;0.52;;;;;;;15.53;57.10;103398.72;5059285;28;20117;-79
2022/04/16 08:54:00;;;;;;;3.17;2.03;;;;;;;15.62;56.60;103405.84;5071895;28;20032;-79
2022/04/16 08:56:26;;;;;;;0.28;0.28;;;;;;;15.64;56.02;103406.75;5071362;28;20028;-79
2022/04/16 08:58:53;;;;;;;3.03;0.70;;;;;;;15.65;55.76;103404.06;5071864;28;20033;-79
2022/04/16 09:01:19;;;;;;;0.00;0.00;;;;;;;15.69;55.95;103399.59;5049715;28;20033;-80
2022/04/16 09:03:49;;;;;;;1.75;1.65;;;;;;;15.72;56.51;103396.91;5050382;28;20048;-80
2022/04/16 09:06:23;;;;;;;0.10;0.10;;;;;;;15.85;55.83;103401.41;5051447;28;20021;-80
2022/04/16 09:08:49;;;;;;;0.68;0.65;;;;;;;15.91;56.13;103400.47;5051671;28;20033;-80
2022/04/16 09:11:21;;;;;;;0.08;0.08;;;;;;;16.03;55.39;103399.59;5051040;28;20509;-79
2022/04/16 09:16:26;;;;;;;0.10;0.10;;;;;;;16.22;55.53;103396.88;5110164;27;20446;-80
2022/04/16 09:18:55;;;;;;;0.47;0.47;;;;;;;16.32;55.58;103387.91;5109835;28;20036;-80
2022/04/16 09:21:25;;;;;;;4.30;2.38;;;;;;;16.50;55.77;103386.97;5111342;28;20028;-80
2022/04/16 09:23:58;;;;;;;0.10;0.10;;;;;;;16.60;55.26;103388.69;5112062;28;20024;-80
2022/04/16 09:26:32;;;;;;;0.73;0.73;;;;;;;16.75;55.18;103384.16;5111498;28;20030;-80
2022/04/16 09:29:19;;;;;;;0.20;0.20;;;;;;;16.88;54.72;103384.97;5111755;28;20027;-80
2022/04/16 09:31:48;;;;;;;0.10;0.10;;;;;;;16.91;53.87;103387.63;5100796;28;20039;-80
2022/04/16 09:34:20;;;;;;;0.10;0.10;;;;;;;17.04;54.15;103392.03;5118722;28;20072;-80
2022/04/16 09:36:47;;;;;;;0.10;0.10;;;;;;;17.06;52.97;103389.34;5113145;27;20028;-80
2022/04/16 09:39:14;;;;;;;0.00;0.00;;;;;;;17.12;51.53;103397.34;5113197;28;20077;-80
2022/04/16 09:41:42;;;;;;;0.40;0.40;;;;;;;17.16;52.06;103390.19;5113171;28;20027;-80
2022/04/16 09:44:25;;;;;;;1.33;1.27;;;;;;;17.30;52.41;103388.31;5110299;28;20039;-80
2022/04/16 09:49:25;;;;;;;0.20;0.20;;;;;;;17.28;51.74;103387.41;5092978;28;20075;-77
2022/04/16 09:51:51;;;;;;;0.13;0.13;;;;;;;17.34;51.44;103383.81;5094840;28;20043;-78
2022/04/16 09:54:21;;;;;;;6.20;1.42;;;;;;;17.54;51.23;103375.59;5097570;28;20028;-79
2022/04/16 09:56:48;;;;;;;1.38;0.95;;;;;;;17.65;50.96;103376.38;5089954;28;20089;-78
2022/04/16 09:59:15;;;;;;;0.05;0.05;;;;;;;17.76;50.33;103377.16;5084855;28;20032;-77
2022/04/16 10:01:48;;;;;;;0.30;0.30;;;;;;;17.93;50.68;103370.72;5084956;28;20811;-77
2022/04/16 10:04:16;;;;;;;0.38;0.38;;;;;;;18.05;50.73;103373.31;5084607;28;20482;-78
2022/04/16 10:06:43;;;;;;;0.35;0.35;;;;;;;18.15;50.62;103374.09;5090244;28;20037;-78
2022/04/16 10:09:26;;;;;;;1.20;1.10;;;;;;;18.18;48.84;103374.09;5096896;28;20039;-77
2022/04/16 10:15:05;;;;;;;0.68;0.68;;;;;;;18.51;48.73;103371.00;5096540;28;20041;-78
2022/04/16 10:17:50;;;;;;;0.35;0.35;;;;;;;18.50;48.10;103379.97;5093337;28;20440;-78
2022/04/16 10:20:18;;;;;;;0.40;0.40;;;;;;;18.45;48.75;103377.31;5092446;28;20039;-78
2022/04/16 10:23:03;;;;;;;0.63;0.47;;;;;;;18.50;48.00;103378.16;5092331;28;20122;-76
2022/04/16 10:25:47;;;;;;;0.30;0.30;;;;;;;18.41;48.35;103378.28;5073118;28;20043;-76
2022/04/16 10:28:23;;;;;;;0.47;0.47;;;;;;;18.60;48.01;103360.13;5074571;28;20024;-78
2022/04/16 10:30:52;;;;;;;0.10;0.10;;;;;;;18.70;47.99;103372.50;5056886;28;20520;-77
2022/04/16 10:36:01;;;;;;;0.90;0.90;;;;;;;19.03;47.77;103366.72;5057541;28;20465;-77
2022/04/16 10:38:45;;;;;;;0.30;0.30;;;;;;;19.24;45.15;103358.31;5057372;28;20394;-79
2022/04/16 10:41:13;;;;;;;0.08;0.08;;;;;;;19.22;45.83;103359.25;5056462;28;20085;-78
2022/04/16 10:43:40;;;;;;;0.05;0.05;;;;;;;19.24;44.12;103357.44;5054705;28;20033;-78
2022/04/16 10:46:09;;;;;;;0.40;0.40;;;;;;;19.44;43.54;103358.88;5056697;28;20048;-78
2022/04/16 10:48:37;;;;;;;0.98;0.98;;;;;;;19.56;45.01;103364.03;5054019;28;20032;-78
2022/04/16 10:51:04;;;;;;;2.28;1.20;;;;;;;19.68;45.88;103347.69;5048845;28;20099;-78
2022/04/16 10:53:33;;;;;;;0.15;0.15;;;;;;;19.75;43.97;103352.94;5050744;28;20048;-77
2022/04/16 10:56:20;;;;;;;0.55;0.55;;;;;;;19.89;41.90;103348.25;5052185;28;20116;-78
2022/04/16 10:58:59;;;;;;;0.93;0.93;;;;;;;19.83;42.44;103351.03;5053810;28;20063;-77
2022/04/16 11:01:27;;;;;;;0.10;0.10;;;;;;;19.91;43.24;103348.19;5048864;28;20032;-76
2022/04/16 11:03:54;;;;;;;0.10;0.10;;;;;;;19.94;42.96;103351.72;5050936;28;20112;-78
2022/04/16 11:06:20;;;;;;;0.30;0.30;;;;;;;20.08;43.46;103355.94;5050193;28;20032;-77
2022/04/16 11:08:47;;;;;;;0.55;0.55;;;;;;;20.12;41.23;103341.50;5051954;28;20033;-76
2022/04/16 11:11:15;;;;;;;2.85;1.40;;;;;;;20.18;42.60;103349.44;5053910;28;20033;-77
2022/04/16 11:13:43;;;;;;;0.20;0.20;;;;;;;20.24;40.64;103352.03;5054408;28;20033;-77
2022/04/16 11:16:11;;;;;;;0.17;0.17;;;;;;;20.33;41.27;103349.13;5051846;28;20029;-77
2022/04/16 11:18:38;;;;;;;0.10;0.10;;;;;;;20.32;40.18;103355.41;5057563;28;20021;-76
2022/04/16 11:21:26;;;;;;;0.52;0.47;;;;;;;20.46;42.26;103346.16;5053949;28;20037;-77
2022/04/16 11:23:53;;;;;;;0.28;0.28;;;;;;;20.35;39.94;103354.50;5048127;28;20079;-77
2022/04/16 11:34:53;;;;;;;0.20;0.20;;;;;;;20.64;39.20;103328.72;5052239;28;20120;-78
2022/04/16 11:37:19;;;;;;;0.08;0.08;;;;;;;20.68;38.69;103325.91;5052139;28;20041;-76
2022/04/16 11:40:16;;;;;;;0.20;0.20;;;;;;;20.88;39.21;103343.44;5054016;28;20029;-76
2022/04/16 11:42:45;;;;;;;0.00;0.00;;;;;;;20.80;38.53;103329.28;5053641;28;20037;-78
2022/04/16 11:45:13;;;;;;;0.20;0.20;;;;;;;20.80;39.57;103338.25;5049920;28;20443;-77
2022/04/16 11:47:39;;;;;;;1.05;0.95;;;;;;;20.93;37.98;103336.13;5033129;28;20137;-77
2022/04/16 11:50:07;;;;;;;0.10;0.10;;;;;;;20.92;38.05;103333.47;5034011;28;20055;-77
2022/04/16 11:52:35;;;;;;;0.00;0.00;;;;;;;20.90;37.10;103332.63;5038794;28;20026;-77
2022/04/16 11:55:06;;;;;;;0.90;0.82;;;;;;;20.96;39.55;103330.69;5038784;28;20108;-77
2022/04/16 11:57:33;;;;;;;0.10;0.10;;;;;;;21.00;38.43;103332.38;5038467;28;20037;-78
2022/04/16 12:00:04;;;;;;;0.00;0.00;;;;;;;21.06;37.68;103335.81;5033610;28;20547;-77
2022/04/16 12:02:34;;;;;;;0.00;0.00;;;;;;;20.89;37.52;103329.06;5036866;28;20049;-78